sensor_id;sensor_type;location;lat;lon;timestamp;P1;durP1;ratioP1;P2;durP2;ratioP2
49812;SDS011;35706;52.100;5.056;2023-09-08T00:00:21;1.90;;;1.58;;
49812;SDS011;35706;52.100;5.056;2023-09-08T00:01:22;4.32;;;1.40;;
49812;SDS011;35706;52.100;5.056;2023-09-08T00:02:22;2.60;;;1.20;;
49812;SDS011;35706;52.100;5.056;2023-09-08T00:03:24;4.85;;;1.35;;
49812;SDS011;35706;52.100;5.056;2023-09-08T00:04:24;3.35;;;1.33;;
49812;SDS011;35706;52.100;5.056;2023-09-08T00:05:24;8.25;;;1.80;;
49812;SDS011;35706;52.100;5.056;2023-09-08T00:06:25;5.63;;;1.60;;
49812;SDS011;35706;52.100;5.056;2023-09-08T00:07:25;3.40;;;1.67;;
49812;SDS011;35706;52.100;5.056;2023-09-08T00:08:25;1.92;;;1.30;;
49812;SDS011;35706;52.100;5.056;2023-09-08T00:09:26;1.75;;;1.48;;
49812;SDS011;35706;52.100;5.056;2023-09-08T00:10:26;4.68;;;1.90;;
49812;SDS011;35706;52.100;5.056;2023-09-08T00:11:26;3.05;;;1.40;;
49812;SDS011;35706;52.100;5.056;2023-09-08T00:12:27;5.00;;;1.35;;
49812;SDS011;35706;52.100;5.056;2023-09-08T00:13:27;1.77;;;1.58;;
49812;SDS011;35706;52.100;5.056;2023-09-08T00:14:27;2.58;;;1.50;;
49812;SDS011;35706;52.100;5.056;2023-09-08T00:15:28;4.47;;;1.80;;
49812;SDS011;35706;52.100;5.056;2023-09-08T00:16:28;4.97;;;1.35;;
49812;SDS011;35706;52.100;5.056;2023-09-08T00:17:29;8.35;;;1.60;;
49812;SDS011;35706;52.100;5.056;2023-09-08T00:18:30;4.80;;;1.65;;
49812;SDS011;35706;52.100;5.056;2023-09-08T00:19:30;4.35;;;1.30;;
49812;SDS011;35706;52.100;5.056;2023-09-08T00:20:30;7.50;;;1.98;;
49812;SDS011;35706;52.100;5.056;2023-09-08T00:21:31;6.88;;;1.92;;
49812;SDS011;35706;52.100;5.056;2023-09-08T00:22:31;5.30;;;2.20;;
49812;SDS011;35706;52.100;5.056;2023-09-08T00:23:31;4.43;;;2.00;;
49812;SDS011;35706;52.100;5.056;2023-09-08T00:24:31;6.10;;;2.17;;
49812;SDS011;35706;52.100;5.056;2023-09-08T00:25:32;2.97;;;2.05;;
49812;SDS011;35706;52.100;5.056;2023-09-08T00:26:32;4.03;;;1.55;;
49812;SDS011;35706;52.100;5.056;2023-09-08T00:27:33;3.60;;;1.75;;
49812;SDS011;35706;52.100;5.056;2023-09-08T00:28:33;3.22;;;2.20;;
49812;SDS011;35706;52.100;5.056;2023-09-08T00:29:33;3.65;;;1.75;;
49812;SDS011;35706;52.100;5.056;2023-09-08T00:30:33;4.75;;;1.80;;
49812;SDS011;35706;52.100;5.056;2023-09-08T00:31:34;3.65;;;2.22;;
49812;SDS011;35706;52.100;5.056;2023-09-08T00:32:35;8.40;;;2.22;;
49812;SDS011;35706;52.100;5.056;2023-09-08T00:33:35;5.43;;;2.05;;
49812;SDS011;35706;52.100;5.056;2023-09-08T00:34:37;3.83;;;2.10;;
49812;SDS011;35706;52.100;5.056;2023-09-08T00:35:38;3.97;;;1.92;;
49812;SDS011;35706;52.100;5.056;2023-09-08T00:36:38;5.72;;;2.03;;
49812;SDS011;35706;52.100;5.056;2023-09-08T00:37:39;4.30;;;2.17;;
49812;SDS011;35706;52.100;5.056;2023-09-08T00:38:40;3.15;;;2.17;;
49812;SDS011;35706;52.100;5.056;2023-09-08T00:39:41;4.82;;;1.70;;
49812;SDS011;35706;52.100;5.056;2023-09-08T00:40:41;4.80;;;1.92;;
49812;SDS011;35706;52.100;5.056;2023-09-08T00:41:42;2.85;;;2.30;;
49812;SDS011;35706;52.100;5.056;2023-09-08T00:42:42;2.28;;;2.00;;
49812;SDS011;35706;52.100;5.056;2023-09-08T00:43:42;4.97;;;1.80;;
49812;SDS011;35706;52.100;5.056;2023-09-08T00:44:43;8.30;;;2.20;;
49812;SDS011;35706;52.100;5.056;2023-09-08T00:45:43;5.03;;;2.53;;
49812;SDS011;35706;52.100;5.056;2023-09-08T00:46:45;5.78;;;2.45;;
49812;SDS011;35706;52.100;5.056;2023-09-08T00:47:45;4.07;;;2.25;;
49812;SDS011;35706;52.100;5.056;2023-09-08T00:48:46;3.92;;;2.08;;
49812;SDS011;35706;52.100;5.056;2023-09-08T00:49:46;3.25;;;2.13;;
49812;SDS011;35706;52.100;5.056;2023-09-08T00:50:47;3.65;;;2.72;;
49812;SDS011;35706;52.100;5.056;2023-09-08T00:51:48;5.30;;;2.58;;
49812;SDS011;35706;52.100;5.056;2023-09-08T00:52:48;6.93;;;2.65;;
49812;SDS011;35706;52.100;5.056;2023-09-08T00:53:49;4.68;;;2.72;;
49812;SDS011;35706;52.100;5.056;2023-09-08T00:54:50;3.40;;;2.75;;
49812;SDS011;35706;52.100;5.056;2023-09-08T00:55:50;5.85;;;2.72;;
49812;SDS011;35706;52.100;5.056;2023-09-08T00:56:53;4.93;;;2.20;;
49812;SDS011;35706;52.100;5.056;2023-09-08T00:57:56;8.70;;;2.55;;
49812;SDS011;35706;52.100;5.056;2023-09-08T00:58:58;6.75;;;2.75;;
49812;SDS011;35706;52.100;5.056;2023-09-08T00:59:59;3.05;;;2.40;;
49812;SDS011;35706;52.100;5.056;2023-09-08T01:01:00;10.23;;;2.58;;
49812;SDS011;35706;52.100;5.056;2023-09-08T01:02:01;5.57;;;2.72;;
49812;SDS011;35706;52.100;5.056;2023-09-08T01:03:02;4.55;;;3.30;;
49812;SDS011;35706;52.100;5.056;2023-09-08T01:04:03;4.68;;;2.70;;
49812;SDS011;35706;52.100;5.056;2023-09-08T01:05:04;3.03;;;2.83;;
49812;SDS011;35706;52.100;5.056;2023-09-08T01:06:04;7.85;;;2.97;;
49812;SDS011;35706;52.100;5.056;2023-09-08T01:07:06;3.10;;;2.50;;
49812;SDS011;35706;52.100;5.056;2023-09-08T01:08:06;6.68;;;2.70;;
49812;SDS011;35706;52.100;5.056;2023-09-08T01:09:07;6.10;;;3.00;;
49812;SDS011;35706;52.100;5.056;2023-09-08T01:10:08;3.50;;;2.55;;
49812;SDS011;35706;52.100;5.056;2023-09-08T01:11:09;2.85;;;2.33;;
49812;SDS011;35706;52.100;5.056;2023-09-08T01:12:09;3.33;;;2.60;;
49812;SDS011;35706;52.100;5.056;2023-09-08T01:13:11;7.40;;;4.00;;
49812;SDS011;35706;52.100;5.056;2023-09-08T01:14:11;3.72;;;3.40;;
49812;SDS011;35706;52.100;5.056;2023-09-08T01:15:13;3.55;;;3.25;;
49812;SDS011;35706;52.100;5.056;2023-09-08T01:16:13;4.15;;;3.00;;
49812;SDS011;35706;52.100;5.056;2023-09-08T01:17:14;7.35;;;3.25;;
49812;SDS011;35706;52.100;5.056;2023-09-08T01:18:14;5.38;;;2.75;;
49812;SDS011;35706;52.100;5.056;2023-09-08T01:19:14;9.35;;;3.42;;
49812;SDS011;35706;52.100;5.056;2023-09-08T01:20:24;6.68;;;2.85;;
49812;SDS011;35706;52.100;5.056;2023-09-08T01:21:35;2.95;;;2.40;;
49812;SDS011;35706;52.100;5.056;2023-09-08T01:23:18;3.45;;;2.53;;
49812;SDS011;35706;52.100;5.056;2023-09-08T01:26:56;8.55;;;2.53;;
49812;SDS011;35706;52.100;5.056;2023-09-08T01:27:58;6.88;;;2.38;;
49812;SDS011;35706;52.100;5.056;2023-09-08T01:29:02;4.65;;;2.58;;
49812;SDS011;35706;52.100;5.056;2023-09-08T01:30:04;6.45;;;2.58;;
49812;SDS011;35706;52.100;5.056;2023-09-08T01:31:06;3.53;;;3.33;;
49812;SDS011;35706;52.100;5.056;2023-09-08T01:32:08;3.13;;;2.83;;
49812;SDS011;35706;52.100;5.056;2023-09-08T01:33:08;7.53;;;2.70;;
49812;SDS011;35706;52.100;5.056;2023-09-08T01:34:09;4.63;;;3.28;;
49812;SDS011;35706;52.100;5.056;2023-09-08T01:35:10;4.65;;;2.63;;
49812;SDS011;35706;52.100;5.056;2023-09-08T01:36:11;3.75;;;3.40;;
49812;SDS011;35706;52.100;5.056;2023-09-08T01:37:11;5.57;;;3.80;;
49812;SDS011;35706;52.100;5.056;2023-09-08T01:38:11;4.63;;;3.08;;
49812;SDS011;35706;52.100;5.056;2023-09-08T01:39:12;6.03;;;3.60;;
49812;SDS011;35706;52.100;5.056;2023-09-08T01:40:12;5.35;;;3.47;;
49812;SDS011;35706;52.100;5.056;2023-09-08T01:41:13;4.05;;;3.63;;
49812;SDS011;35706;52.100;5.056;2023-09-08T01:42:13;3.95;;;3.10;;
49812;SDS011;35706;52.100;5.056;2023-09-08T01:43:14;7.55;;;3.72;;
49812;SDS011;35706;52.100;5.056;2023-09-08T01:44:14;3.95;;;3.65;;
49812;SDS011;35706;52.100;5.056;2023-09-08T01:45:14;3.15;;;2.85;;
49812;SDS011;35706;52.100;5.056;2023-09-08T01:46:15;4.38;;;2.75;;
49812;SDS011;35706;52.100;5.056;2023-09-08T01:47:15;4.07;;;3.55;;
49812;SDS011;35706;52.100;5.056;2023-09-08T01:48:16;6.00;;;3.97;;
49812;SDS011;35706;52.100;5.056;2023-09-08T01:49:16;5.03;;;3.10;;
49812;SDS011;35706;52.100;5.056;2023-09-08T01:50:17;3.20;;;3.00;;
49812;SDS011;35706;52.100;5.056;2023-09-08T01:51:21;3.65;;;2.88;;
49812;SDS011;35706;52.100;5.056;2023-09-08T01:52:22;4.82;;;3.17;;
49812;SDS011;35706;52.100;5.056;2023-09-08T01:53:22;5.38;;;2.83;;
49812;SDS011;35706;52.100;5.056;2023-09-08T01:54:23;6.57;;;3.17;;
49812;SDS011;35706;52.100;5.056;2023-09-08T01:55:23;3.97;;;3.13;;
49812;SDS011;35706;52.100;5.056;2023-09-08T01:56:23;4.25;;;3.45;;
49812;SDS011;35706;52.100;5.056;2023-09-08T01:57:24;3.17;;;2.97;;
49812;SDS011;35706;52.100;5.056;2023-09-08T01:58:24;4.38;;;3.67;;
49812;SDS011;35706;52.100;5.056;2023-09-08T01:59:24;6.05;;;3.72;;
49812;SDS011;35706;52.100;5.056;2023-09-08T02:00:25;6.28;;;3.50;;
49812;SDS011;35706;52.100;5.056;2023-09-08T02:01:25;4.03;;;3.67;;
49812;SDS011;35706;52.100;5.056;2023-09-08T02:02:25;4.30;;;3.42;;
49812;SDS011;35706;52.100;5.056;2023-09-08T02:03:26;4.15;;;3.80;;
49812;SDS011;35706;52.100;5.056;2023-09-08T02:04:26;6.43;;;3.45;;
49812;SDS011;35706;52.100;5.056;2023-09-08T02:05:26;5.63;;;3.42;;
49812;SDS011;35706;52.100;5.056;2023-09-08T02:06:27;7.85;;;2.55;;
49812;SDS011;35706;52.100;5.056;2023-09-08T02:07:27;7.00;;;4.40;;
49812;SDS011;35706;52.100;5.056;2023-09-08T02:08:28;4.72;;;3.03;;
49812;SDS011;35706;52.100;5.056;2023-09-08T02:09:31;3.50;;;3.20;;
49812;SDS011;35706;52.100;5.056;2023-09-08T02:10:32;4.55;;;3.97;;
49812;SDS011;35706;52.100;5.056;2023-09-08T02:11:33;4.43;;;3.55;;
49812;SDS011;35706;52.100;5.056;2023-09-08T02:12:33;6.47;;;3.25;;
49812;SDS011;35706;52.100;5.056;2023-09-08T02:13:33;3.83;;;3.53;;
49812;SDS011;35706;52.100;5.056;2023-09-08T02:14:34;4.57;;;3.40;;
49812;SDS011;35706;52.100;5.056;2023-09-08T02:15:34;4.05;;;3.65;;
49812;SDS011;35706;52.100;5.056;2023-09-08T02:16:36;3.53;;;3.22;;
49812;SDS011;35706;52.100;5.056;2023-09-08T02:17:36;3.58;;;3.28;;
49812;SDS011;35706;52.100;5.056;2023-09-08T02:18:37;4.18;;;2.92;;
49812;SDS011;35706;52.100;5.056;2023-09-08T02:19:37;3.72;;;2.55;;
49812;SDS011;35706;52.100;5.056;2023-09-08T02:20:37;3.78;;;3.08;;
49812;SDS011;35706;52.100;5.056;2023-09-08T02:21:38;4.55;;;4.15;;
49812;SDS011;35706;52.100;5.056;2023-09-08T02:22:38;5.63;;;3.67;;
49812;SDS011;35706;52.100;5.056;2023-09-08T02:23:38;6.63;;;3.78;;
49812;SDS011;35706;52.100;5.056;2023-09-08T02:24:39;8.38;;;3.55;;
49812;SDS011;35706;52.100;5.056;2023-09-08T02:25:39;5.03;;;3.40;;
49812;SDS011;35706;52.100;5.056;2023-09-08T02:26:39;5.50;;;3.42;;
49812;SDS011;35706;52.100;5.056;2023-09-08T02:27:40;6.80;;;3.00;;
49812;SDS011;35706;52.100;5.056;2023-09-08T02:28:40;4.32;;;3.63;;
49812;SDS011;35706;52.100;5.056;2023-09-08T02:29:41;3.85;;;3.40;;
49812;SDS011;35706;52.100;5.056;2023-09-08T02:30:41;7.65;;;4.05;;
49812;SDS011;35706;52.100;5.056;2023-09-08T02:31:41;4.60;;;3.53;;
49812;SDS011;35706;52.100;5.056;2023-09-08T02:32:42;4.32;;;3.55;;
49812;SDS011;35706;52.100;5.056;2023-09-08T02:33:43;3.53;;;3.33;;
49812;SDS011;35706;52.100;5.056;2023-09-08T02:34:43;6.93;;;3.85;;
49812;SDS011;35706;52.100;5.056;2023-09-08T02:35:43;5.13;;;3.55;;
49812;SDS011;35706;52.100;5.056;2023-09-08T02:36:44;5.13;;;3.80;;
49812;SDS011;35706;52.100;5.056;2023-09-08T02:37:44;7.40;;;2.85;;
49812;SDS011;35706;52.100;5.056;2023-09-08T02:38:44;4.30;;;3.90;;
49812;SDS011;35706;52.100;5.056;2023-09-08T02:39:45;6.13;;;4.00;;
49812;SDS011;35706;52.100;5.056;2023-09-08T02:40:45;7.18;;;4.00;;
49812;SDS011;35706;52.100;5.056;2023-09-08T02:41:45;5.10;;;3.85;;
49812;SDS011;35706;52.100;5.056;2023-09-08T02:42:46;4.10;;;3.20;;
49812;SDS011;35706;52.100;5.056;2023-09-08T02:43:46;4.90;;;4.30;;
49812;SDS011;35706;52.100;5.056;2023-09-08T02:44:47;6.07;;;4.13;;
49812;SDS011;35706;52.100;5.056;2023-09-08T02:45:47;6.88;;;4.28;;
49812;SDS011;35706;52.100;5.056;2023-09-08T02:46:47;4.68;;;3.42;;
49812;SDS011;35706;52.100;5.056;2023-09-08T02:47:48;6.95;;;3.92;;
49812;SDS011;35706;52.100;5.056;2023-09-08T02:48:48;7.85;;;3.95;;
49812;SDS011;35706;52.100;5.056;2023-09-08T02:49:49;6.78;;;4.60;;
49812;SDS011;35706;52.100;5.056;2023-09-08T02:50:50;7.18;;;4.28;;
49812;SDS011;35706;52.100;5.056;2023-09-08T02:51:50;5.22;;;3.95;;
49812;SDS011;35706;52.100;5.056;2023-09-08T02:52:50;6.57;;;4.30;;
49812;SDS011;35706;52.100;5.056;2023-09-08T02:53:51;7.00;;;4.15;;
49812;SDS011;35706;52.100;5.056;2023-09-08T02:54:51;6.40;;;5.22;;
49812;SDS011;35706;52.100;5.056;2023-09-08T02:55:51;6.57;;;4.35;;
49812;SDS011;35706;52.100;5.056;2023-09-08T02:56:52;4.22;;;3.83;;
49812;SDS011;35706;52.100;5.056;2023-09-08T02:57:52;7.95;;;4.25;;
49812;SDS011;35706;52.100;5.056;2023-09-08T02:58:52;8.15;;;4.35;;
49812;SDS011;35706;52.100;5.056;2023-09-08T02:59:52;5.15;;;4.53;;
49812;SDS011;35706;52.100;5.056;2023-09-08T03:00:56;5.57;;;4.15;;
49812;SDS011;35706;52.100;5.056;2023-09-08T03:01:56;6.15;;;4.47;;
49812;SDS011;35706;52.100;5.056;2023-09-08T03:02:57;6.55;;;4.18;;
49812;SDS011;35706;52.100;5.056;2023-09-08T03:03:57;6.05;;;4.82;;
49812;SDS011;35706;52.100;5.056;2023-09-08T03:04:57;4.70;;;4.30;;
49812;SDS011;35706;52.100;5.056;2023-09-08T03:05:57;4.78;;;4.20;;
49812;SDS011;35706;52.100;5.056;2023-09-08T03:07:03;5.30;;;4.95;;
49812;SDS011;35706;52.100;5.056;2023-09-08T03:08:03;5.43;;;4.20;;
49812;SDS011;35706;52.100;5.056;2023-09-08T03:09:05;11.20;;;5.38;;
49812;SDS011;35706;52.100;5.056;2023-09-08T03:10:05;5.22;;;4.53;;
49812;SDS011;35706;52.100;5.056;2023-09-08T03:11:07;6.18;;;5.45;;
49812;SDS011;35706;52.100;5.056;2023-09-08T03:12:08;6.53;;;4.50;;
49812;SDS011;35706;52.100;5.056;2023-09-08T03:13:09;5.68;;;4.10;;
49812;SDS011;35706;52.100;5.056;2023-09-08T03:14:09;5.15;;;4.20;;
49812;SDS011;35706;52.100;5.056;2023-09-08T03:15:09;6.07;;;4.88;;
49812;SDS011;35706;52.100;5.056;2023-09-08T03:16:10;6.97;;;4.25;;
49812;SDS011;35706;52.100;5.056;2023-09-08T03:17:11;5.30;;;4.82;;
49812;SDS011;35706;52.100;5.056;2023-09-08T03:18:12;6.20;;;5.65;;
49812;SDS011;35706;52.100;5.056;2023-09-08T03:19:12;5.47;;;4.45;;
49812;SDS011;35706;52.100;5.056;2023-09-08T03:20:13;9.82;;;4.95;;
49812;SDS011;35706;52.100;5.056;2023-09-08T03:21:14;10.00;;;5.03;;
49812;SDS011;35706;52.100;5.056;2023-09-08T03:22:14;5.05;;;4.53;;
49812;SDS011;35706;52.100;5.056;2023-09-08T03:23:14;6.88;;;5.65;;
49812;SDS011;35706;52.100;5.056;2023-09-08T03:24:15;5.90;;;5.18;;
49812;SDS011;35706;52.100;5.056;2023-09-08T03:25:15;5.20;;;4.70;;
49812;SDS011;35706;52.100;5.056;2023-09-08T03:26:16;8.70;;;4.75;;
49812;SDS011;35706;52.100;5.056;2023-09-08T03:27:16;5.65;;;5.05;;
49812;SDS011;35706;52.100;5.056;2023-09-08T03:28:16;5.38;;;4.68;;
49812;SDS011;35706;52.100;5.056;2023-09-08T03:29:17;7.03;;;4.97;;
49812;SDS011;35706;52.100;5.056;2023-09-08T03:30:17;6.43;;;5.35;;
49812;SDS011;35706;52.100;5.056;2023-09-08T03:31:17;6.18;;;4.10;;
49812;SDS011;35706;52.100;5.056;2023-09-08T03:32:18;6.25;;;5.47;;
49812;SDS011;35706;52.100;5.056;2023-09-08T03:33:18;8.35;;;5.85;;
49812;SDS011;35706;52.100;5.056;2023-09-08T03:34:18;7.55;;;5.57;;
49812;SDS011;35706;52.100;5.056;2023-09-08T03:35:20;4.82;;;4.53;;
49812;SDS011;35706;52.100;5.056;2023-09-08T03:36:20;7.75;;;5.53;;
49812;SDS011;35706;52.100;5.056;2023-09-08T03:37:21;5.30;;;4.90;;
49812;SDS011;35706;52.100;5.056;2023-09-08T03:38:22;5.32;;;4.72;;
49812;SDS011;35706;52.100;5.056;2023-09-08T03:39:23;5.28;;;4.88;;
49812;SDS011;35706;52.100;5.056;2023-09-08T03:40:23;7.13;;;5.47;;
49812;SDS011;35706;52.100;5.056;2023-09-08T03:41:23;7.72;;;5.63;;
49812;SDS011;35706;52.100;5.056;2023-09-08T03:42:24;8.45;;;5.60;;
49812;SDS011;35706;52.100;5.056;2023-09-08T03:43:24;6.82;;;5.38;;
49812;SDS011;35706;52.100;5.056;2023-09-08T03:44:24;6.68;;;5.22;;
49812;SDS011;35706;52.100;5.056;2023-09-08T03:45:25;5.80;;;5.00;;
49812;SDS011;35706;52.100;5.056;2023-09-08T03:46:25;5.55;;;4.95;;
49812;SDS011;35706;52.100;5.056;2023-09-08T03:47:25;7.97;;;5.55;;
49812;SDS011;35706;52.100;5.056;2023-09-08T03:48:26;6.43;;;5.55;;
49812;SDS011;35706;52.100;5.056;2023-09-08T03:49:26;7.35;;;5.45;;
49812;SDS011;35706;52.100;5.056;2023-09-08T03:50:26;6.80;;;5.47;;
49812;SDS011;35706;52.100;5.056;2023-09-08T03:51:27;5.85;;;5.32;;
49812;SDS011;35706;52.100;5.056;2023-09-08T03:52:28;5.05;;;4.72;;
49812;SDS011;35706;52.100;5.056;2023-09-08T03:53:28;7.53;;;5.53;;
49812;SDS011;35706;52.100;5.056;2023-09-08T03:54:29;6.20;;;5.60;;
49812;SDS011;35706;52.100;5.056;2023-09-08T03:55:29;9.55;;;6.07;;
49812;SDS011;35706;52.100;5.056;2023-09-08T03:56:29;5.75;;;5.35;;
49812;SDS011;35706;52.100;5.056;2023-09-08T03:57:30;5.85;;;5.35;;
49812;SDS011;35706;52.100;5.056;2023-09-08T03:58:30;9.52;;;5.55;;
49812;SDS011;35706;52.100;5.056;2023-09-08T03:59:31;5.40;;;5.00;;
49812;SDS011;35706;52.100;5.056;2023-09-08T04:00:31;8.73;;;5.10;;
49812;SDS011;35706;52.100;5.056;2023-09-08T04:01:31;5.97;;;5.38;;
49812;SDS011;35706;52.100;5.056;2023-09-08T04:02:32;7.82;;;6.00;;
49812;SDS011;35706;52.100;5.056;2023-09-08T04:03:33;6.88;;;5.53;;
49812;SDS011;35706;52.100;5.056;2023-09-08T04:04:33;6.65;;;6.10;;
49812;SDS011;35706;52.100;5.056;2023-09-08T04:05:33;6.18;;;5.55;;
49812;SDS011;35706;52.100;5.056;2023-09-08T04:06:33;6.85;;;6.20;;
49812;SDS011;35706;52.100;5.056;2023-09-08T04:07:34;11.90;;;6.05;;
49812;SDS011;35706;52.100;5.056;2023-09-08T04:08:34;5.93;;;5.35;;
49812;SDS011;35706;52.100;5.056;2023-09-08T04:09:34;6.47;;;5.80;;
49812;SDS011;35706;52.100;5.056;2023-09-08T04:10:35;6.93;;;6.05;;
49812;SDS011;35706;52.100;5.056;2023-09-08T04:11:35;5.45;;;5.00;;
49812;SDS011;35706;52.100;5.056;2023-09-08T04:12:35;7.50;;;5.80;;
49812;SDS011;35706;52.100;5.056;2023-09-08T04:13:37;7.72;;;5.32;;
49812;SDS011;35706;52.100;5.056;2023-09-08T04:14:37;8.70;;;5.25;;
49812;SDS011;35706;52.100;5.056;2023-09-08T04:15:38;6.97;;;5.82;;
49812;SDS011;35706;52.100;5.056;2023-09-08T04:16:38;5.00;;;4.70;;
49812;SDS011;35706;52.100;5.056;2023-09-08T04:17:38;6.05;;;5.57;;
49812;SDS011;35706;52.100;5.056;2023-09-08T04:18:39;6.32;;;5.68;;
49812;SDS011;35706;52.100;5.056;2023-09-08T04:19:39;6.05;;;5.55;;
49812;SDS011;35706;52.100;5.056;2023-09-08T04:20:39;7.70;;;5.82;;
49812;SDS011;35706;52.100;5.056;2023-09-08T04:21:40;6.07;;;5.47;;
49812;SDS011;35706;52.100;5.056;2023-09-08T04:22:41;6.53;;;5.25;;
49812;SDS011;35706;52.100;5.056;2023-09-08T04:23:41;5.60;;;5.15;;
49812;SDS011;35706;52.100;5.056;2023-09-08T04:24:41;8.52;;;5.88;;
49812;SDS011;35706;52.100;5.056;2023-09-08T04:25:42;10.80;;;5.45;;
49812;SDS011;35706;52.100;5.056;2023-09-08T04:26:42;6.70;;;6.10;;
49812;SDS011;35706;52.100;5.056;2023-09-08T04:27:42;7.05;;;5.65;;
49812;SDS011;35706;52.100;5.056;2023-09-08T04:28:44;6.95;;;6.35;;
49812;SDS011;35706;52.100;5.056;2023-09-08T04:29:44;9.38;;;6.10;;
49812;SDS011;35706;52.100;5.056;2023-09-08T04:30:45;6.70;;;5.90;;
49812;SDS011;35706;52.100;5.056;2023-09-08T04:31:45;8.20;;;6.03;;
49812;SDS011;35706;52.100;5.056;2023-09-08T04:32:45;7.28;;;6.50;;
49812;SDS011;35706;52.100;5.056;2023-09-08T04:33:45;9.27;;;7.25;;
49812;SDS011;35706;52.100;5.056;2023-09-08T04:34:46;7.50;;;6.75;;
49812;SDS011;35706;52.100;5.056;2023-09-08T04:35:46;7.53;;;5.90;;
49812;SDS011;35706;52.100;5.056;2023-09-08T04:36:47;8.45;;;6.55;;
49812;SDS011;35706;52.100;5.056;2023-09-08T04:37:47;7.93;;;6.43;;
49812;SDS011;35706;52.100;5.056;2023-09-08T04:38:47;7.35;;;5.85;;
49812;SDS011;35706;52.100;5.056;2023-09-08T04:39:48;7.20;;;6.53;;
49812;SDS011;35706;52.100;5.056;2023-09-08T04:40:48;7.10;;;6.25;;
49812;SDS011;35706;52.100;5.056;2023-09-08T04:41:49;11.82;;;6.25;;
49812;SDS011;35706;52.100;5.056;2023-09-08T04:42:49;6.68;;;6.22;;
49812;SDS011;35706;52.100;5.056;2023-09-08T04:43:49;7.63;;;6.88;;
49812;SDS011;35706;52.100;5.056;2023-09-08T04:44:49;7.70;;;6.93;;
49812;SDS011;35706;52.100;5.056;2023-09-08T04:45:50;6.60;;;6.05;;
49812;SDS011;35706;52.100;5.056;2023-09-08T04:46:51;7.82;;;6.38;;
49812;SDS011;35706;52.100;5.056;2023-09-08T04:47:52;9.13;;;6.95;;
49812;SDS011;35706;52.100;5.056;2023-09-08T04:48:52;7.05;;;5.72;;
49812;SDS011;35706;52.100;5.056;2023-09-08T04:49:52;8.63;;;6.85;;
49812;SDS011;35706;52.100;5.056;2023-09-08T04:50:53;11.98;;;6.45;;
49812;SDS011;35706;52.100;5.056;2023-09-08T04:51:53;7.75;;;6.70;;
49812;SDS011;35706;52.100;5.056;2023-09-08T04:52:53;9.32;;;7.35;;
49812;SDS011;35706;52.100;5.056;2023-09-08T04:53:54;8.25;;;7.20;;
49812;SDS011;35706;52.100;5.056;2023-09-08T04:54:54;9.48;;;7.20;;
49812;SDS011;35706;52.100;5.056;2023-09-08T04:55:54;9.52;;;7.20;;
49812;SDS011;35706;52.100;5.056;2023-09-08T04:56:55;6.57;;;6.15;;
49812;SDS011;35706;52.100;5.056;2023-09-08T04:57:55;9.50;;;7.82;;
49812;SDS011;35706;52.100;5.056;2023-09-08T04:58:56;7.53;;;6.75;;
49812;SDS011;35706;52.100;5.056;2023-09-08T04:59:58;7.07;;;6.38;;
49812;SDS011;35706;52.100;5.056;2023-09-08T05:00:58;10.23;;;7.65;;
49812;SDS011;35706;52.100;5.056;2023-09-08T05:01:58;14.70;;;7.88;;
49812;SDS011;35706;52.100;5.056;2023-09-08T05:02:59;8.65;;;7.25;;
49812;SDS011;35706;52.100;5.056;2023-09-08T05:03:59;7.13;;;6.47;;
49812;SDS011;35706;52.100;5.056;2023-09-08T05:04:59;13.15;;;7.47;;
49812;SDS011;35706;52.100;5.056;2023-09-08T05:06:00;9.05;;;7.25;;
49812;SDS011;35706;52.100;5.056;2023-09-08T05:07:01;9.50;;;6.43;;
49812;SDS011;35706;52.100;5.056;2023-09-08T05:08:01;6.60;;;5.90;;
49812;SDS011;35706;52.100;5.056;2023-09-08T05:09:02;8.43;;;7.50;;
49812;SDS011;35706;52.100;5.056;2023-09-08T05:10:02;9.07;;;6.78;;
49812;SDS011;35706;52.100;5.056;2023-09-08T05:11:03;8.18;;;6.25;;
49812;SDS011;35706;52.100;5.056;2023-09-08T05:12:03;8.57;;;6.93;;
49812;SDS011;35706;52.100;5.056;2023-09-08T05:13:04;10.20;;;6.82;;
49812;SDS011;35706;52.100;5.056;2023-09-08T05:14:04;7.93;;;6.85;;
49812;SDS011;35706;52.100;5.056;2023-09-08T05:15:05;10.98;;;6.75;;
49812;SDS011;35706;52.100;5.056;2023-09-08T05:16:10;11.18;;;5.38;;
49812;SDS011;35706;52.100;5.056;2023-09-08T05:17:11;11.10;;;7.47;;
49812;SDS011;35706;52.100;5.056;2023-09-08T05:18:11;8.23;;;6.63;;
49812;SDS011;35706;52.100;5.056;2023-09-08T05:19:12;7.20;;;6.50;;
49812;SDS011;35706;52.100;5.056;2023-09-08T05:20:13;7.43;;;6.80;;
49812;SDS011;35706;52.100;5.056;2023-09-08T05:21:13;8.10;;;7.15;;
49812;SDS011;35706;52.100;5.056;2023-09-08T05:22:14;9.77;;;7.63;;
49812;SDS011;35706;52.100;5.056;2023-09-08T05:23:14;7.65;;;6.95;;
49812;SDS011;35706;52.100;5.056;2023-09-08T05:24:14;8.77;;;7.18;;
49812;SDS011;35706;52.100;5.056;2023-09-08T05:25:15;12.45;;;7.05;;
49812;SDS011;35706;52.100;5.056;2023-09-08T05:26:15;8.43;;;6.65;;
49812;SDS011;35706;52.100;5.056;2023-09-08T05:27:15;7.38;;;6.75;;
49812;SDS011;35706;52.100;5.056;2023-09-08T05:28:16;9.77;;;6.97;;
49812;SDS011;35706;52.100;5.056;2023-09-08T05:29:16;11.40;;;7.18;;
49812;SDS011;35706;52.100;5.056;2023-09-08T05:30:16;7.40;;;6.65;;
49812;SDS011;35706;52.100;5.056;2023-09-08T05:31:17;7.55;;;6.45;;
49812;SDS011;35706;52.100;5.056;2023-09-08T05:32:17;8.43;;;7.13;;
49812;SDS011;35706;52.100;5.056;2023-09-08T05:33:18;7.35;;;6.30;;
49812;SDS011;35706;52.100;5.056;2023-09-08T05:34:18;8.27;;;7.55;;
49812;SDS011;35706;52.100;5.056;2023-09-08T05:35:18;16.35;;;8.18;;
49812;SDS011;35706;52.100;5.056;2023-09-08T05:36:19;9.63;;;7.43;;
49812;SDS011;35706;52.100;5.056;2023-09-08T05:37:19;11.30;;;7.63;;
49812;SDS011;35706;52.100;5.056;2023-09-08T05:38:19;13.98;;;7.65;;
49812;SDS011;35706;52.100;5.056;2023-09-08T05:39:20;10.13;;;7.25;;
49812;SDS011;35706;52.100;5.056;2023-09-08T05:40:20;7.35;;;6.68;;
49812;SDS011;35706;52.100;5.056;2023-09-08T05:41:24;5.57;;;5.07;;
49812;SDS011;35706;52.100;5.056;2023-09-08T05:42:24;11.43;;;6.82;;
49812;SDS011;35706;52.100;5.056;2023-09-08T05:43:24;7.55;;;5.93;;
49812;SDS011;35706;52.100;5.056;2023-09-08T05:44:25;7.63;;;5.93;;
49812;SDS011;35706;52.100;5.056;2023-09-08T05:45:25;7.20;;;6.50;;
49812;SDS011;35706;52.100;5.056;2023-09-08T05:46:26;7.00;;;6.40;;
49812;SDS011;35706;52.100;5.056;2023-09-08T05:47:26;12.30;;;7.47;;
49812;SDS011;35706;52.100;5.056;2023-09-08T05:48:27;9.27;;;5.82;;
49812;SDS011;35706;52.100;5.056;2023-09-08T05:49:27;7.35;;;6.70;;
49812;SDS011;35706;52.100;5.056;2023-09-08T05:50:27;8.80;;;6.93;;
49812;SDS011;35706;52.100;5.056;2023-09-08T05:51:27;11.13;;;7.00;;
49812;SDS011;35706;52.100;5.056;2023-09-08T05:52:28;7.53;;;6.75;;
49812;SDS011;35706;52.100;5.056;2023-09-08T05:53:28;8.52;;;7.55;;
49812;SDS011;35706;52.100;5.056;2023-09-08T05:54:28;6.53;;;5.90;;
49812;SDS011;35706;52.100;5.056;2023-09-08T05:55:30;12.18;;;8.02;;
49812;SDS011;35706;52.100;5.056;2023-09-08T05:56:30;7.07;;;6.47;;
49812;SDS011;35706;52.100;5.056;2023-09-08T05:57:31;7.40;;;6.78;;
49812;SDS011;35706;52.100;5.056;2023-09-08T05:58:32;8.13;;;6.50;;
49812;SDS011;35706;52.100;5.056;2023-09-08T05:59:33;10.23;;;7.55;;
49812;SDS011;35706;52.100;5.056;2023-09-08T06:00:34;7.22;;;6.35;;
49812;SDS011;35706;52.100;5.056;2023-09-08T06:01:34;10.18;;;7.60;;
49812;SDS011;35706;52.100;5.056;2023-09-08T06:02:36;13.98;;;8.27;;
49812;SDS011;35706;52.100;5.056;2023-09-08T06:03:36;10.55;;;6.93;;
49812;SDS011;35706;52.100;5.056;2023-09-08T06:04:37;8.57;;;7.75;;
49812;SDS011;35706;52.100;5.056;2023-09-08T06:05:37;9.80;;;7.95;;
49812;SDS011;35706;52.100;5.056;2023-09-08T06:06:37;9.05;;;7.32;;
49812;SDS011;35706;52.100;5.056;2023-09-08T06:07:37;13.85;;;7.40;;